Time;durP1;ratioP1;P1;durP2;ratioP2;P2;SDS_P1;SDS_P2;PMS_P1;PMS_P2;Temp;Humidity;BMP_temperature;BMP_pressure;BME280_temperature;BME280_humidity;BME280_pressure;Samples;Min_cycle;Max_cycle;Signal;HPM_P1;HPM_P2
2022/10/13 00:00:27;;;;;;;1999.90;999.90;;;9.00;99.90;;;;;;5053730;28;20844;-67
2022/10/13 00:02:54;;;;;;;1999.90;999.90;;;9.00;99.90;;;;;;5053015;28;21130;-67
2022/10/13 00:05:21;;;;;;;1999.90;999.90;;;9.00;99.90;;;;;;5053277;28;20465;-68
2022/10/13 00:07:49;;;;;;;1999.90;999.90;;;9.00;99.90;;;;;;5053860;28;20496;-70
2022/10/13 00:10:16;;;;;;;1999.90;999.90;;;8.90;99.90;;;;;;5042780;28;20463;-68
2022/10/13 00:12:43;;;;;;;1999.90;999.90;;;8.90;99.90;;;;;;5044887;28;20446;-68
2022/10/13 00:15:10;;;;;;;1999.90;999.90;;;8.80;99.90;;;;;;5053591;28;20463;-68
2022/10/13 00:17:37;;;;;;;1999.90;999.90;;;8.90;99.90;;;;;;5052933;28;20939;-68
2022/10/13 00:20:05;;;;;;;1999.90;999.90;;;8.90;99.90;;;;;;5054392;28;20956;-67
2022/10/13 00:22:32;;;;;;;1999.90;999.90;;;8.80;99.90;;;;;;5050309;28;20459;-67
2022/10/13 00:25:00;;;;;;;1999.90;999.90;;;8.80;99.90;;;;;;5043533;28;20497;-68
2022/10/13 00:27:27;;;;;;;1999.90;999.90;;;8.70;99.90;;;;;;5043876;23;20505;-70
2022/10/13 00:29:54;;;;;;;1999.90;999.90;;;8.60;99.90;;;;;;5034787;28;20450;-70
2022/10/13 00:32:21;;;;;;;1999.90;999.90;;;8.50;99.90;;;;;;5034994;28;20447;-69
2022/10/13 00:34:47;;;;;;;1999.90;999.90;;;8.50;99.90;;;;;;5034880;28;20443;-70
2022/10/13 00:37:14;;;;;;;1999.90;999.90;;;8.40;99.90;;;;;;5048058;28;20466;-70
2022/10/13 00:39:41;;;;;;;1999.90;999.90;;;8.60;99.90;;;;;;5062767;28;20446;-70
2022/10/13 00:42:12;;;;;;;1999.90;999.90;;;8.50;99.90;;;;;;5049306;28;20475;-70
2022/10/13 00:44:59;;;;;;;1999.90;999.90;;;8.50;99.90;;;;;;5045860;28;20442;-72
2022/10/13 00:47:28;;;;;;;1999.90;999.90;;;8.60;99.90;;;;;;5054576;28;20465;-72
2022/10/13 00:49:55;;;;;;;1999.90;999.90;;;8.60;99.90;;;;;;5054535;28;20992;-71
2022/10/13 00:52:25;;;;;;;1999.90;999.90;;;8.70;99.90;;;;;;5054586;28;20438;-70
2022/10/13 00:54:52;;;;;;;1999.90;999.90;;;8.60;99.90;;;;;;5053238;28;20958;-71
2022/10/13 00:57:20;;;;;;;1999.90;999.90;;;8.50;99.90;;;;;;5043322;28;20477;-71
2022/10/13 00:59:48;;;;;;;1999.90;999.90;;;8.60;99.90;;;;;;5034628;28;20450;-72
2022/10/13 01:02:15;;;;;;;1999.90;999.90;;;8.80;99.90;;;;;;5034582;28;20479;-70
2022/10/13 01:04:46;;;;;;;1999.90;999.90;;;8.80;99.90;;;;;;5034050;28;20447;-70
2022/10/13 01:07:15;;;;;;;1999.90;999.90;;;8.80;99.90;;;;;;5033982;28;20478;-71
2022/10/13 01:09:42;;;;;;;1999.90;999.90;;;9.00;99.90;;;;;;5040165;28;20487;-71
2022/10/13 01:12:18;;;;;;;1999.90;999.90;;;8.80;99.90;;;;;;5042199;28;20948;-71
2022/10/13 01:14:52;;;;;;;1999.90;999.90;;;9.00;99.90;;;;;;5033930;28;20962;-71
2022/10/13 01:17:28;;;;;;;1999.90;999.90;;;8.90;99.90;;;;;;5034132;28;20470;-71
2022/10/13 01:20:30;;;;;;;1999.90;999.90;;;8.90;99.90;;;;;;5033959;28;20454;-70
2022/10/13 01:23:18;;;;;;;1999.90;999.90;;;8.90;99.90;;;;;;5034537;28;20469;-70
2022/10/13 01:26:02;;;;;;;1999.90;999.90;;;8.80;99.90;;;;;;5041754;28;20924;-71
2022/10/13 01:28:51;;;;;;;1999.90;999.90;;;8.80;99.90;;;;;;5033910;28;20427;-71
2022/10/13 01:31:25;;;;;;;1999.90;999.90;;;8.80;99.90;;;;;;5033690;28;20440;-70
2022/10/13 01:33:57;;;;;;;1999.90;999.90;;;8.70;99.90;;;;;;5033853;28;20447;-70
2022/10/13 01:36:31;;;;;;;1999.90;999.90;;;8.70;99.90;;;;;;5033432;28;20987;-71
2022/10/13 01:39:05;;;;;;;1999.90;999.90;;;8.80;99.90;;;;;;5041980;28;20512;-70
2022/10/13 01:41:36;;;;;;;1999.90;999.90;;;8.90;99.90;;;;;;5033439;28;20478;-70
2022/10/13 01:44:08;;;;;;;1999.90;999.90;;;9.00;99.90;;;;;;5033468;28;20447;-70
2022/10/13 01:46:38;;;;;;;1999.90;999.90;;;8.90;99.90;;;;;;5033518;28;20467;-69
2022/10/13 01:49:10;;;;;;;1999.90;999.90;;;9.00;99.90;;;;;;5033580;28;20447;-69
2022/10/13 01:51:38;;;;;;;1999.90;999.90;;;8.90;99.90;;;;;;5035791;28;20974;-73
2022/10/13 01:54:04;;;;;;;1999.90;999.90;;;8.90;99.90;;;;;;5042273;28;20950;-70
2022/10/13 01:56:31;;;;;;;1999.90;999.90;;;8.80;99.90;;;;;;5043748;28;20470;-70
2022/10/13 01:59:02;;;;;;;1999.90;999.90;;;8.80;99.90;;;;;;5053328;28;21075;-70
2022/10/13 02:01:45;;;;;;;1999.90;999.90;;;8.70;99.90;;;;;;5053391;28;20485;-71
2022/10/13 02:04:23;;;;;;;1999.90;999.90;;;8.70;99.90;;;;;;5053140;28;20453;-72
2022/10/13 02:06:56;;;;;;;1999.90;999.90;;;8.70;99.90;;;;;;5043963;28;20826;-70
2022/10/13 02:09:30;;;;;;;1999.90;999.90;;;8.70;99.90;;;;;;5033602;28;20444;-70
2022/10/13 02:12:02;;;;;;;1999.90;999.90;;;8.80;99.90;;;;;;5033106;28;20451;-73
2022/10/13 02:14:33;;;;;;;1999.90;999.90;;;8.80;99.90;;;;;;5032946;28;20458;-71
2022/10/13 02:17:04;;;;;;;1999.90;999.90;;;8.60;99.90;;;;;;5032802;28;20470;-70
2022/10/13 02:19:35;;;;;;;1999.90;999.90;;;8.60;99.90;;;;;;5033388;28;20459;-70
2022/10/13 02:22:02;;;;;;;1999.90;999.90;;;8.60;99.90;;;;;;5040387;28;21014;-70
2022/10/13 02:24:29;;;;;;;1999.90;999.90;;;8.60;99.90;;;;;;5032603;28;20930;-70
2022/10/13 02:26:56;;;;;;;1999.90;999.90;;;8.80;99.90;;;;;;5032522;28;20475;-71
2022/10/13 02:29:24;;;;;;;1999.90;999.90;;;8.70;99.90;;;;;;5032632;28;20451;-71
2022/10/13 02:31:52;;;;;;;1999.90;999.90;;;8.60;99.90;;;;;;5032950;28;20447;-71
2022/10/13 02:34:20;;;;;;;1999.90;999.90;;;8.70;99.90;;;;;;5040106;28;20528;-70
2022/10/13 02:36:47;;;;;;;1999.90;999.90;;;8.70;99.90;;;;;;5040452;28;20482;-71
2022/10/13 02:39:14;;;;;;;1999.90;999.90;;;8.60;99.90;;;;;;5032880;28;20452;-71
2022/10/13 02:41:42;;;;;;;1999.90;999.90;;;8.50;99.90;;;;;;5031756;28;20483;-70
2022/10/13 02:44:08;;;;;;;1999.90;999.90;;;8.50;99.90;;;;;;5032531;28;20451;-70
2022/10/13 02:46:35;;;;;;;1999.90;999.90;;;8.40;99.90;;;;;;5032313;28;20469;-70
2022/10/13 02:49:02;;;;;;;1999.90;999.90;;;8.50;99.90;;;;;;5039084;28;20459;-70
2022/10/13 02:51:30;;;;;;;1999.90;999.90;;;8.30;99.90;;;;;;5039983;28;20450;-71
2022/10/13 02:53:57;;;;;;;1999.90;999.90;;;8.30;99.90;;;;;;5032267;28;20478;-71
2022/10/13 02:56:24;;;;;;;1999.90;999.90;;;8.30;99.90;;;;;;5031908;28;20467;-71
2022/10/13 02:58:50;;;;;;;1999.90;999.90;;;8.50;99.90;;;;;;5032529;28;20451;-68
2022/10/13 03:01:17;;;;;;;1999.90;999.90;;;8.10;99.90;;;;;;5035174;28;20485;-68
2022/10/13 03:03:44;;;;;;;1999.90;999.90;;;8.20;99.90;;;;;;5043896;28;20454;-69
2022/10/13 03:06:11;;;;;;;1999.90;999.90;;;8.10;99.90;;;;;;5051674;28;20474;-69
2022/10/13 03:08:39;;;;;;;1999.90;999.90;;;8.20;99.90;;;;;;5062720;28;20444;-69
2022/10/13 03:11:06;;;;;;;1999.90;999.90;;;8.20;99.90;;;;;;5063132;28;20442;-69
2022/10/13 03:13:33;;;;;;;1999.90;999.90;;;8.20;99.90;;;;;;5053650;28;20453;-68
2022/10/13 03:15:59;;;;;;;1999.90;999.90;;;8.40;99.90;;;;;;5043880;28;20475;-69
2022/10/13 03:18:26;;;;;;;1999.90;999.90;;;8.50;99.90;;;;;;5040625;28;20447;-72
2022/10/13 03:20:58;;;;;;;1999.90;999.90;;;8.50;99.90;;;;;;5032062;28;20508;-72
2022/10/13 03:23:25;;;;;;;1999.90;999.90;;;8.60;99.90;;;;;;5032065;28;20443;-72
2022/10/13 03:25:53;;;;;;;1999.90;999.90;;;8.60;99.90;;;;;;5031416;28;20458;-71
2022/10/13 03:28:20;;;;;;;1999.90;999.90;;;8.60;99.90;;;;;;5031768;28;20451;-71
2022/10/13 03:30:47;;;;;;;1999.90;999.90;;;8.90;99.90;;;;;;5038957;28;20971;-69
2022/10/13 03:33:14;;;;;;;1999.90;999.90;;;8.60;99.90;;;;;;5040001;28;20450;-72
2022/10/13 03:35:41;;;;;;;1999.90;999.90;;;8.80;99.90;;;;;;5031362;28;20443;-71
2022/10/13 03:38:08;;;;;;;1999.90;999.90;;;8.70;99.90;;;;;;5031937;28;20457;-72
2022/10/13 03:40:35;;;;;;;1999.90;999.90;;;8.70;99.90;;;;;;5032027;28;20447;-71
2022/10/13 03:43:03;;;;;;;1999.90;999.90;;;8.80;99.90;;;;;;5031674;28;20483;-72
2022/10/13 03:45:30;;;;;;;1999.90;999.90;;;8.90;99.90;;;;;;5041630;28;20472;-71
2022/10/13 03:47:57;;;;;;;1999.90;999.90;;;8.90;99.90;;;;;;5035158;28;20970;-71
2022/10/13 03:50:24;;;;;;;1999.90;999.90;;;8.80;99.90;;;;;;5031421;28;20447;-72
2022/10/13 03:52:50;;;;;;;1999.90;999.90;;;8.90;99.90;;;;;;5031764;28;20454;-72
2022/10/13 03:55:17;;;;;;;1999.90;999.90;;;8.90;99.90;;;;;;5035484;28;20443;-72
2022/10/13 03:57:44;;;;;;;1999.90;999.90;;;8.90;99.90;;;;;;5038250;28;20489;-69
2022/10/13 04:00:14;;;;;;;1999.90;999.90;;;8.90;99.90;;;;;;5045479;28;20450;-72
2022/10/13 04:02:41;;;;;;;1999.90;999.90;;;8.90;99.90;;;;;;5035534;28;20482;-71
2022/10/13 04:05:09;;;;;;;1999.90;999.90;;;8.80;99.90;;;;;;5035413;28;20454;-71
2022/10/13 04:07:35;;;;;;;1999.90;999.90;;;8.80;99.90;;;;;;5035430;28;20478;-71
2022/10/13 04:10:02;;;;;;;1999.90;999.90;;;8.90;99.90;;;;;;5035550;28;20458;-72
2022/10/13 04:12:29;;;;;;;1999.90;999.90;;;8.90;99.90;;;;;;5039177;28;20470;-72
2022/10/13 04:14:56;;;;;;;1999.90;999.90;;;8.90;99.90;;;;;;5043376;28;20444;-71
2022/10/13 04:17:24;;;;;;;1999.90;999.90;;;8.90;99.90;;;;;;5034991;28;21002;-71
2022/10/13 04:19:51;;;;;;;1999.90;999.90;;;8.90;99.90;;;;;;5035092;28;20451;-71
2022/10/13 04:22:18;;;;;;;1999.90;999.90;;;8.90;99.90;;;;;;5034612;28;20475;-71
2022/10/13 04:24:44;;;;;;;1999.90;999.90;;;8.90;99.90;;;;;;5035126;28;20449;-71
2022/10/13 04:27:11;;;;;;;1999.90;999.90;;;8.90;99.90;;;;;;5039202;28;20498;-72
2022/10/13 04:29:38;;;;;;;1999.90;999.90;;;9.00;99.90;;;;;;5041634;28;20451;-70
2022/10/13 04:32:05;;;;;;;1999.90;999.90;;;8.90;99.90;;;;;;5035209;28;20442;-71
2022/10/13 04:34:33;;;;;;;1999.90;999.90;;;9.00;99.90;;;;;;5034784;28;20447;-72
2022/10/13 04:37:00;;;;;;;1999.90;999.90;;;9.00;99.90;;;;;;5034781;28;20471;-73
2022/10/13 04:39:26;;;;;;;1999.90;999.90;;;9.00;99.90;;;;;;5034771;28;20446;-71
2022/10/13 04:41:54;;;;;;;1999.90;999.90;;;9.10;99.90;;;;;;5043895;28;20485;-71
2022/10/13 04:44:21;;;;;;;1999.90;999.90;;;9.20;99.90;;;;;;5035053;28;20513;-70
2022/10/13 04:46:48;;;;;;;1999.90;999.90;;;9.20;99.90;;;;;;5034760;28;20463;-71
2022/10/13 04:49:16;;;;;;;1999.90;999.90;;;9.30;99.90;;;;;;5034624;28;20966;-72
2022/10/13 04:51:44;;;;;;;1999.90;999.90;;;9.30;99.90;;;;;;5034788;28;20458;-71
2022/10/13 04:54:10;;;;;;;1999.90;999.90;;;9.30;99.90;;;;;;5035111;28;20477;-71
2022/10/13 04:56:37;;;;;;;1999.90;999.90;;;9.40;99.90;;;;;;5042215;28;20467;-72
2022/10/13 04:59:05;;;;;;;1999.90;999.90;;;9.30;99.90;;;;;;5034375;28;20451;-70
2022/10/13 05:01:32;;;;;;;1999.90;999.90;;;9.30;99.90;;;;;;5034188;28;20520;-71
2022/10/13 05:04:01;;;;;;;1999.90;999.90;;;9.30;99.90;;;;;;5034419;28;20457;-71
2022/10/13 05:06:31;;;;;;;1999.90;999.90;;;9.40;99.90;;;;;;5032913;28;20463;-70
2022/10/13 05:09:00;;;;;;;1999.90;999.90;;;9.30;99.90;;;;;;5041852;28;20462;-71
2022/10/13 05:11:28;;;;;;;1999.90;999.90;;;9.40;99.90;;;;;;5042113;28;20445;-69
2022/10/13 05:13:55;;;;;;;1999.90;999.90;;;9.40;99.90;;;;;;5034188;28;20453;-69
2022/10/13 05:16:22;;;;;;;1999.90;999.90;;;9.40;99.90;;;;;;5033486;28;21041;-68
2022/10/13 05:18:50;;;;;;;1999.90;999.90;;;9.30;99.90;;;;;;5033898;28;20474;-71
2022/10/13 05:21:20;;;;;;;1999.90;999.90;;;9.30;99.90;;;;;;5033664;28;20474;-69
2022/10/13 05:23:47;;;;;;;1999.90;999.90;;;9.30;99.90;;;;;;5040392;28;20491;-71
2022/10/13 05:26:17;;;;;;;1999.90;999.90;;;9.30;99.90;;;;;;5041627;28;20475;-71
2022/10/13 05:28:44;;;;;;;1999.90;999.90;;;9.30;99.90;;;;;;5033990;28;20439;-71
2022/10/13 05:31:13;;;;;;;1999.90;999.90;;;9.30;99.90;;;;;;5033596;28;20451;-71
2022/10/13 05:33:40;;;;;;;1999.90;999.90;;;9.30;99.90;;;;;;5033537;28;20443;-71
2022/10/13 05:36:09;;;;;;;1999.90;999.90;;;9.30;99.90;;;;;;5033527;28;20463;-71
2022/10/13 05:38:35;;;;;;;1999.90;999.90;;;9.30;99.90;;;;;;5043973;28;20466;-71
2022/10/13 05:41:03;;;;;;;1999.90;999.90;;;9.30;99.90;;;;;;5036823;28;20443;-70
2022/10/13 05:43:32;;;;;;;1999.90;999.90;;;9.60;99.90;;;;;;5033170;28;20858;-70
2022/10/13 05:45:59;;;;;;;1999.90;999.90;;;9.40;99.90;;;;;;5032900;28;20820;-71
2022/10/13 05:48:27;;;;;;;1999.90;999.90;;;9.40;99.90;;;;;;5033493;28;20451;-71
2022/10/13 05:50:55;;;;;;;1999.90;999.90;;;9.40;99.90;;;;;;5037335;28;20508;-71
2022/10/13 05:53:23;;;;;;;1999.90;999.90;;;9.50;99.90;;;;;;5041585;28;20436;-71
2022/10/13 05:55:50;;;;;;;1999.90;999.90;;;9.50;99.90;;;;;;5033102;28;20457;-74
2022/10/13 05:58:17;;;;;;;1999.90;999.90;;;9.60;99.90;;;;;;5033580;28;20443;-70
2022/10/13 06:00:45;;;;;;;1999.90;999.90;;;9.70;99.90;;;;;;5033264;28;20451;-72
2022/10/13 06:03:15;;;;;;;1999.90;999.90;;;9.80;99.90;;;;;;5033454;28;20490;-71
2022/10/13 06:05:46;;;;;;;1999.90;999.90;;;9.80;99.90;;;;;;5035404;28;20459;-69
2022/10/13 06:08:13;;;;;;;1999.90;999.90;;;9.80;99.90;;;;;;5041444;28;20530;-70
2022/10/13 06:10:40;;;;;;;1999.90;999.90;;;9.70;99.90;;;;;;5033373;28;20449;-70
2022/10/13 06:13:07;;;;;;;1999.90;999.90;;;9.60;99.90;;;;;;5033228;28;20439;-71
2022/10/13 06:15:34;;;;;;;1999.90;999.90;;;9.60;99.90;;;;;;5032982;28;20458;-71
2022/10/13 06:18:02;;;;;;;1999.90;999.90;;;9.50;99.90;;;;;;5032944;28;20467;-70
2022/10/13 06:20:29;;;;;;;1999.90;999.90;;;9.40;99.90;;;;;;5037801;28;20474;-70
2022/10/13 06:22:56;;;;;;;1999.90;999.90;;;9.50;99.90;;;;;;5040413;28;20486;-70
2022/10/13 06:25:23;;;;;;;1999.90;999.90;;;9.50;99.90;;;;;;5032569;28;20443;-73
2022/10/13 06:27:49;;;;;;;1999.90;999.90;;;9.50;99.90;;;;;;5033635;28;21006;-71
2022/10/13 06:30:16;;;;;;;1999.90;999.90;;;9.50;99.90;;;;;;5032929;28;20439;-71
2022/10/13 06:32:43;;;;;;;1999.90;999.90;;;9.70;99.90;;;;;;5032838;28;20522;-71
2022/10/13 06:35:11;;;;;;;1999.90;999.90;;;9.70;99.90;;;;;;5037617;28;20463;-71
2022/10/13 06:37:38;;;;;;;1999.90;999.90;;;9.70;99.90;;;;;;5038776;28;20491;-70
2022/10/13 06:40:06;;;;;;;1999.90;999.90;;;9.80;99.90;;;;;;5032804;28;20458;-71
2022/10/13 06:42:33;;;;;;;1999.90;999.90;;;9.90;99.90;;;;;;5032417;28;20483;-71
2022/10/13 06:44:59;;;;;;;1999.90;999.90;;;9.90;99.90;;;;;;5032304;28;20462;-71
2022/10/13 06:47:26;;;;;;;1999.90;999.90;;;9.80;99.90;;;;;;5032642;28;20486;-70
2022/10/13 06:49:53;;;;;;;1999.90;999.90;;;10.00;99.90;;;;;;5042043;28;20985;-71
2022/10/13 06:52:21;;;;;;;1999.90;999.90;;;10.10;99.90;;;;;;5040848;28;20451;-70
2022/10/13 06:54:48;;;;;;;1999.90;999.90;;;10.10;99.90;;;;;;5031999;28;20852;-70
2022/10/13 06:57:14;;;;;;;1999.90;999.90;;;10.30;99.90;;;;;;5031866;28;21001;-70
2022/10/13 06:59:43;;;;;;;1999.90;999.90;;;10.30;99.90;;;;;;5032348;28;20447;-71
2022/10/13 07:02:10;;;;;;;1999.90;999.90;;;10.40;99.90;;;;;;5032338;28;20451;-70
2022/10/13 07:04:36;;;;;;;1999.90;999.90;;;10.40;99.90;;;;;;5039921;28;20507;-70
2022/10/13 07:07:03;;;;;;;1999.90;999.90;;;10.40;99.90;;;;;;5034824;28;21007;-70
2022/10/13 07:09:31;;;;;;;1999.90;999.90;;;10.40;99.90;;;;;;5040206;28;20470;-70
2022/10/13 07:11:58;;;;;;;1999.90;999.90;;;10.50;99.90;;;;;;5040241;28;20447;-70
2022/10/13 07:14:25;;;;;;;1999.90;999.90;;;10.70;99.90;;;;;;5031861;28;20439;-68
2022/10/13 07:16:52;;;;;;;1999.90;999.90;;;10.80;99.90;;;;;;5031831;28;20471;-70
2022/10/13 07:19:19;;;;;;;1999.90;999.90;;;10.80;99.90;;;;;;5031839;28;20454;-68
2022/10/13 07:21:45;;;;;;;1999.90;999.90;;;10.90;99.90;;;;;;5031543;28;20451;-68
2022/10/13 07:24:12;;;;;;;1999.90;999.90;;;11.00;99.90;;;;;;5045518;28;20485;-67
2022/10/13 07:26:40;;;;;;;1999.90;999.90;;;11.00;99.90;;;;;;5039581;28;20471;-69
2022/10/13 07:29:07;;;;;;;1999.90;999.90;;;11.00;99.90;;;;;;5031516;28;20439;-68
2022/10/13 07:31:34;;;;;;;1999.90;999.90;;;11.10;99.90;;;;;;5031880;28;20451;-68
2022/10/13 07:34:03;;;;;;;1999.90;999.90;;;11.30;99.90;;;;;;5031454;28;20443;-69
2022/10/13 07:36:30;;;;;;;1999.90;999.90;;;11.30;99.90;;;;;;5031536;28;20474;-67
2022/10/13 07:38:57;;;;;;;1999.90;999.90;;;11.40;99.90;;;;;;5031797;28;20959;-69
2022/10/13 07:41:24;;;;;;;1999.90;999.90;;;11.40;99.90;;;;;;5039692;28;21021;-68
2022/10/13 07:43:56;;;;;;;1999.90;999.90;;;11.60;99.90;;;;;;5031717;28;20489;-68
2022/10/13 07:46:24;;;;;;;1999.90;999.90;;;11.60;99.90;;;;;;5031570;28;20467;-68
2022/10/13 07:48:52;;;;;;;1999.90;999.90;;;11.60;99.90;;;;;;5031286;28;20931;-68
2022/10/13 07:51:18;;;;;;;1999.90;999.90;;;11.60;99.90;;;;;;5031815;28;20470;-69
2022/10/13 07:53:45;;;;;;;1999.90;999.90;;;11.60;99.90;;;;;;5038434;28;20463;-68
2022/10/13 07:56:13;;;;;;;1999.90;999.90;;;11.70;99.90;;;;;;5039444;28;20494;-69
2022/10/13 07:58:42;;;;;;;1999.90;999.90;;;11.80;99.90;;;;;;5031572;28;20447;-68
2022/10/13 08:01:10;;;;;;;1999.90;999.90;;;12.00;99.90;;;;;;5031495;28;20447;-68
2022/10/13 08:03:37;;;;;;;1999.90;999.90;;;12.20;99.90;;;;;;5031656;28;20482;-68
2022/10/13 08:06:05;;;;;;;1999.90;999.90;;;12.40;99.90;;;;;;5031310;28;20470;-69
2022/10/13 08:08:32;;;;;;;1999.90;999.90;;;12.50;99.90;;;;;;5036880;28;20465;-68
2022/10/13 08:11:03;;;;;;;1999.90;999.90;;;12.70;99.90;;;;;;5041981;28;20462;-67
2022/10/13 08:13:29;;;;;;;1999.90;999.90;;;12.80;99.90;;;;;;5031672;28;20443;-68
2022/10/13 08:16:00;;;;;;;1999.90;999.90;;;12.80;99.90;;;;;;5031119;28;20447;-68
2022/10/13 08:18:29;;;;;;;1999.90;999.90;;;12.80;99.90;;;;;;5031336;28;20469;-68
2022/10/13 08:21:00;;;;;;;1999.90;999.90;;;12.90;99.90;;;;;;5031174;28;20447;-67
2022/10/13 08:23:27;;;;;;;1999.90;999.90;;;12.90;99.90;;;;;;5039466;28;20490;-68
2022/10/13 08:25:54;;;;;;;1999.90;999.90;;;12.80;99.90;;;;;;5030602;28;20459;-68
2022/10/13 08:28:22;;;;;;;1999.90;999.90;;;12.70;99.90;;;;;;5031187;28;20436;-68
2022/10/13 08:30:50;;;;;;;1999.90;999.90;;;12.70;99.90;;;;;;5031421;28;20454;-67
2022/10/13 08:33:17;;;;;;;1999.90;999.90;;;12.90;99.90;;;;;;5031379;28;20435;-68
2022/10/13 08:35:45;;;;;;;1999.90;999.90;;;13.20;99.90;;;;;;5030614;28;20454;-68
2022/10/13 08:38:12;;;;;;;1999.90;999.90;;;13.40;99.90;;;;;;5041043;28;20450;-68
2022/10/13 08:40:39;;;;;;;1999.90;999.90;;;13.50;99.90;;;;;;5052425;28;20441;-67
2022/10/13 08:43:07;;;;;;;1999.90;999.90;;;14.10;99.90;;;;;;5054913;28;20485;-68
2022/10/13 08:45:35;;;;;;;1999.90;999.90;;;13.90;99.90;;;;;;5054620;28;20814;-70
2022/10/13 08:48:05;;;;;;;1999.90;999.90;;;14.20;99.90;;;;;;5054424;28;20469;-70
2022/10/13 08:50:35;;;;;;;1999.90;999.90;;;14.30;99.90;;;;;;5049457;28;20469;-69
2022/10/13 08:53:10;;;;;;;1999.90;999.90;;;14.40;99.90;;;;;;5043175;28;20436;-68
2022/10/13 08:55:42;;;;;;;1999.90;999.90;;;14.20;99.90;;;;;;5034440;28;20446;-69
2022/10/13 08:58:16;;;;;;;1999.90;999.90;;;14.30;99.90;;;;;;5034395;28;20443;-67
2022/10/13 09:00:43;;;;;;;1999.90;999.90;;;14.30;99.90;;;;;;5034274;28;20446;-69
2022/10/13 09:03:23;;;;;;;1999.90;999.90;;;14.50;99.90;;;;;;5034406;28;20486;-69
2022/10/13 09:06:00;;;;;;;1999.90;999.90;;;14.60;99.90;;;;;;5037014;28;20528;-70
2022/10/13 09:08:40;;;;;;;1999.90;999.90;;;14.70;99.90;;;;;;5046591;28;20445;-70
2022/10/13 09:11:09;;;;;;;1999.90;999.90;;;14.90;99.90;;;;;;5045229;28;20470;-69
2022/10/13 09:13:36;;;;;;;1999.90;999.90;;;15.00;99.90;;;;;;5041100;28;20526;-70
2022/10/13 09:16:03;;;;;;;1999.90;999.90;;;15.20;99.90;;;;;;5033608;28;21005;-70
2022/10/13 09:18:32;;;;;;;1999.90;999.90;;;15.30;99.90;;;;;;5034393;28;20454;-69
2022/10/13 09:21:11;;;;;;;1999.90;999.90;;;15.40;99.90;;;;;;5043672;28;20469;-70
2022/10/13 09:23:39;;;;;;;1999.90;999.90;;;15.50;99.90;;;;;;5033842;28;20845;-70
2022/10/13 09:26:15;;;;;;;1999.90;999.90;;;15.30;99.90;;;;;;5033483;28;20838;-70
2022/10/13 09:28:42;;;;;;;1999.90;999.90;;;15.40;99.90;;;;;;5033744;28;20457;-69
2022/10/13 09:31:16;;;;;;;1999.90;999.90;;;15.40;99.90;;;;;;5033835;28;20447;-68
2022/10/13 09:33:44;;;;;;;1999.90;999.90;;;15.40;99.90;;;;;;5035109;28;20902;-70
2022/10/13 09:36:13;;;;;;;1999.90;999.90;;;15.50;99.90;;;;;;5043472;28;20470;-70
2022/10/13 09:38:44;;;;;;;1999.90;999.90;;;15.70;99.90;;;;;;5033621;28;20447;-69
2022/10/13 09:41:15;;;;;;;1999.90;999.90;;;15.80;99.90;;;;;;5033929;28;20455;-70
2022/10/13 09:43:43;;;;;;;1999.90;999.90;;;16.00;99.90;;;;;;5033816;28;20870;-69
2022/10/13 09:46:21;;;;;;;1999.90;999.90;;;16.10;99.90;;;;;;5033230;28;20975;-69
2022/10/13 09:48:50;;;;;;;1999.90;999.90;;;16.00;99.90;;;;;;5036084;28;20958;-69
2022/10/13 09:51:32;;;;;;;1999.90;999.90;;;16.00;99.90;;;;;;5041249;28;20978;-70
2022/10/13 09:54:01;;;;;;;1999.90;999.90;;;16.00;99.90;;;;;;5033380;28;20450;-70
2022/10/13 09:56:35;;;;;;;1999.90;999.90;;;16.00;99.90;;;;;;5033046;28;20466;-69
2022/10/13 09:59:14;;;;;;;1999.90;999.90;;;16.00;99.90;;;;;;5033597;28;20442;-70
2022/10/13 10:01:44;;;;;;;1999.90;999.90;;;16.10;99.90;;;;;;5033246;28;20470;-69
2022/10/13 10:04:15;;;;;;;1999.90;999.90;;;16.30;99.90;;;;;;5039793;28;20504;-69
2022/10/13 10:06:45;;;;;;;1999.90;999.90;;;16.40;99.90;;;;;;5039012;28;20474;-70
2022/10/13 10:09:38;;;;;;;1999.90;999.90;;;16.70;99.90;;;;;;5033055;28;21022;-67
2022/10/13 10:12:06;;;;;;;1999.90;999.90;;;16.90;99.90;;;;;;5033101;28;20891;-68
2022/10/13 10:14:36;;;;;;;1999.90;999.90;;;16.90;99.90;;;;;;5033047;28;20470;-69
2022/10/13 10:17:12;;;;;;;1999.90;999.90;;;17.10;99.90;;;;;;5036921;28;20486;-68
2022/10/13 10:19:51;;;;;;;1999.90;999.90;;;17.20;99.90;;;;;;5041154;28;20447;-68
2022/10/13 10:22:25;;;;;;;1999.90;999.90;;;17.10;99.90;;;;;;5032749;28;20462;-66
2022/10/13 10:25:02;;;;;;;1999.90;999.90;;;17.50;99.90;;;;;;5032479;28;20474;-69
2022/10/13 10:27:36;;;;;;;1999.90;999.90;;;17.70;99.90;;;;;;5032978;28;20514;-68
2022/10/13 10:30:06;;;;;;;1999.90;999.90;;;17.60;99.90;;;;;;5033115;28;20427;-68
2022/10/13 10:32:42;;;;;;;1999.90;999.90;;;17.80;99.90;;;;;;5038513;28;21120;-68
2022/10/13 10:35:14;;;;;;;1999.90;999.90;;;18.00;99.90;;;;;;5040605;28;20454;-68
2022/10/13 10:37:58;;;;;;;1999.90;999.90;;;18.10;99.90;;;;;;5032713;28;20471;-68
2022/10/13 10:40:34;;;;;;;1999.90;999.90;;;18.60;99.90;;;;;;5032577;28;20908;-68
2022/10/13 10:43:32;;;;;;;1999.90;999.90;;;18.80;99.90;;;;;;5032355;28;20944;-68
2022/10/13 10:46:00;;;;;;;1999.90;999.90;;;18.90;99.90;;;;;;5037057;28;20466;-68
2022/10/13 10:48:34;;;;;;;1999.90;999.90;;;18.60;99.90;;;;;;5040945;28;20443;-69
2022/10/13 10:51:02;;;;;;;1999.90;999.90;;;18.40;99.90;;;;;;5032400;28;20454;-68
2022/10/13 10:53:35;;;;;;;1999.90;999.90;;;18.30;99.90;;;;;;5032456;28;20450;-69
2022/10/13 10:56:12;;;;;;;1999.90;999.90;;;18.30;99.90;;;;;;5031944;28;21018;-68
2022/10/13 10:58:44;;;;;;;1999.90;999.90;;;18.40;99.90;;;;;;5032056;28;20443;-69
2022/10/13 11:01:28;;;;;;;1999.90;999.90;;;18.50;99.90;;;;;;5039068;28;20462;-69
2022/10/13 11:04:01;;;;;;;1999.90;999.90;;;18.60;99.90;;;;;;5039500;28;21002;-69
2022/10/13 11:06:35;;;;;;;1999.90;999.90;;;18.30;99.90;;;;;;5031812;28;20463;-69
2022/10/13 11:09:04;;;;;;;1999.90;999.90;;;18.30;99.90;;;;;;5031916;28;20911;-67
2022/10/13 11:11:35;;;;;;;1999.90;999.90;;;18.20;99.90;;;;;;5032289;28;20444;-69
2022/10/13 11:14:15;;;;;;;1999.90;999.90;;;18.10;99.90;;;;;;5032007;28;20450;-68
2022/10/13 11:17:09;;;;;;;1999.90;999.90;;;18.10;99.90;;;;;;5039919;28;20478;-69
2022/10/13 11:19:37;;;;;;;1999.90;999.90;;;18.30;99.90;;;;;;5032182;28;20521;-69
2022/10/13 11:22:16;;;;;;;1999.90;999.90;;;18.30;99.90;;;;;;5031774;28;20439;-69
2022/10/13 11:25:00;;;;;;;1999.90;999.90;;;18.40;99.90;;;;;;5031331;28;20482;-68
2022/10/13 11:27:46;;;;;;;1999.90;999.90;;;18.20;99.90;;;;;;5031504;28;20567;-68
2022/10/13 11:30:43;;;;;;;1999.90;999.90;;;18.20;99.90;;;;;;5033709;28;20481;-69
2022/10/13 11:33:32;;;;;;;1999.90;999.90;;;18.60;99.90;;;;;;5033685;28;20443;-68
2022/10/13 11:36:32;;;;;;;1999.90;999.90;;;18.90;99.90;;;;;;5031550;28;20439;-66
2022/10/13 11:39:11;;;;;;;1999.90;999.90;;;18.80;99.90;;;;;;5031584;28;20435;-66
2022/10/13 11:41:47;;;;;;;1999.90;999.90;;;19.00;99.90;;;;;;5031692;28;20965;-69
2022/10/13 11:44:21;;;;;;;1999.90;999.90;;;18.90;99.90;;;;;;5038443;28;20993;-68
2022/10/13 11:47:00;;;;;;;1999.90;999.90;;;18.80;99.90;;;;;;5039576;28;20987;-69
2022/10/13 11:49:50;;;;;;;1999.90;999.90;;;19.00;99.90;;;;;;5031322;28;20843;-69
2022/10/13 11:52:39;;;;;;;1999.90;999.90;;;19.20;99.90;;;;;;5031620;28;20450;-66
2022/10/13 11:55:12;;;;;;;1999.90;999.90;;;19.00;99.90;;;;;;5031204;28;20447;-68
2022/10/13 11:57:39;;;;;;;1999.90;999.90;;;18.90;99.90;;;;;;5031728;28;20466;-69
2022/10/13 12:00:15;;;;;;;1999.90;999.90;;;19.40;99.90;;;;;;5040644;28;20462;-66
2022/10/13 12:02:49;;;;;;;1999.90;999.90;;;19.40;99.70;;;;;;5031132;28;20454;-66
2022/10/13 12:05:22;;;;;;;1999.90;999.90;;;19.30;99.90;;;;;;5031016;28;20519;-68
2022/10/13 12:07:50;;;;;;;1999.90;999.90;;;18.90;99.90;;;;;;5031553;28;20533;-67
2022/10/13 12:10:20;;;;;;;1999.90;999.90;;;19.20;99.90;;;;;;5031510;28;20823;-67
2022/10/13 12:12:49;;;;;;;1999.90;999.90;;;19.40;99.40;;;;;;5031311;28;20451;-67
2022/10/13 12:15:30;;;;;;;1999.90;999.90;;;19.30;99.40;;;;;;5041461;28;20531;-67
2022/10/13 12:17:57;;;;;;;1999.90;999.90;;;19.40;99.00;;;;;;5035378;28;20841;-67